Latest Coastal Weather Observations for Centre Island

IDD60701

Issued at 4:21 pm CST Saturday 25 February 2017 (issued every 10 minutes, with the page automatically refreshed every 10 minutes)

About coastal observations | Map of coastal stations | Coastal observations for NT | Marine services | Other Formats
Station Details ID: 014703 Name: CENTRE ISLAND Lat: -15.74 Lon: 136.82 Height: 12.2 m
Data from the previous 72 hours. | See also: Recent months at Centre Island
Date/Time
CST
Temp
°C
Wind Pressure Rain since
9am
mm
Weather Cloud Vis
km
Sea
Height
m
Swell
Dir  Spd
kts
Gust
kts
hPa Trend Height
m
Period
s
Dir
25/04:00pm 31.7 NE 6 8 1007.3 - 0.0 - - - - - - -
25/03:30pm 31.1 NE 5 6 1007.6 - 0.0 - - - - - - -
25/03:00pm 30.9 E 5 7 1007.9 - 0.0 - - - - - - -
25/02:30pm 31.5 ESE 5 6 1008.3 - 0.0 - - - - - - -
25/02:00pm 30.7 SSE 5 6 1008.7 - 0.0 - - - - - - -
25/01:30pm 31.2 S 5 7 1009.1 - 0.0 - - - - - - -
25/01:00pm 30.6 SE 6 7 1009.5 - 0.0 - - - - - - -
25/12:30pm 31.7 ESE 7 8 1009.9 - 0.0 - - - - - - -
25/12:00pm 31.4 ENE 7 9 1010.1 - 0.0 - - - - - - -
25/11:30am 31.5 E 9 11 1010.3 - 0.0 - - - - - - -
25/11:00am 30.4 ESE 11 13 1010.9 - 0.0 - - - - - - -
25/10:30am 28.9 SE 10 11 1011.4 - 0.0 - - - - - - -
25/10:00am 28.4 SE 6 8 1011.1 - 0.0 - - - - - - -
25/09:30am 27.8 ESE 4 6 1011.0 - 0.0 - - - - - - -
25/09:00am 27.3 ESE 6 8 1011.2 - 0.0 - - - - - - -
25/08:30am 27.1 SE 10 12 1011.2 - 0.0 - - - - - - -
25/08:00am 25.9 SE 13 17 1011.4 - 0.0 - - - - - - -
25/07:30am 26.2 SE 19 22 1011.2 - 0.0 - - - - - - -
25/07:00am 25.9 SE 20 23 1011.0 - 0.0 - - - - - - -
25/06:30am 27.1 SE 14 18 1010.7 - 0.0 - - - - - - -
25/06:00am 26.6 SSE 8 11 1010.6 - 0.0 - - - - - - -
25/05:30am 26.6 ESE 11 13 1010.7 - 0.0 - - - - - - -
25/05:00am 26.5 E 13 16 1010.5 - 0.0 - - - - - - -
25/04:30am 26.3 SE 7 10 1010.2 - 0.0 - - - - - - -
25/04:00am 26.1 S 8 10 1009.9 - 0.0 - - - - - - -
25/03:30am 26.2 SSW 10 12 1009.9 - 0.0 - - - - - - -
25/03:00am 26.4 S 14 18 1009.7 - 0.0 - - - - - - -
25/02:30am 26.7 S 17 20 1010.0 - 0.0 - - - - - - -
25/02:00am 27.2 S 18 21 1010.2 - 0.0 - - - - - - -
25/01:30am 27.6 S 15 19 1010.5 - 0.0 - - - - - - -
25/01:00am 28.4 S 12 15 1010.7 - 0.0 - - - - - - -
25/12:30am 28.3 SSE 6 8 1010.9 - 0.0 - - - - - - -
25/12:00am 28.2 SE 7 8 1010.9 - 0.0 - - - - - - -
 
Date/Time
CST
Temp
°C
Wind Pressure Rain since
9am
mm
Weather Cloud Vis
km
Sea
Height
m
Swell
Dir  Spd
kts
Gust
kts
hPa Trend Height
m
Period
s
Dir
24/11:30pm 28.3 ESE 7 8 1011.2 - 0.0 - - - - - - -
24/11:00pm 28.6 ESE 10 12 1011.6 - 0.0 - - - - - - -
24/10:30pm 28.6 ESE 9 10 1011.9 - 0.0 - - - - - - -
24/10:00pm 28.6 ESE 11 12 1012.0 - 0.0 - - - - - - -
24/09:30pm 28.8 ESE 8 10 1011.7 - 0.0 - - - - - - -
24/09:00pm 28.9 ESE 7 8 1011.2 - 0.0 - - - - - - -
24/08:30pm 29.3 SE 8 9 1010.8 - 0.0 - - - - - - -
24/08:00pm 29.4 SSE 5 7 1010.3 - 0.0 - - - - - - -
24/07:30pm 29.5 ESE 3 4 1009.7 - 0.0 - - - - - - -
24/07:00pm 29.9 CALM 0 0 1009.1 - 0.0 - - - - - - -
24/06:30pm 30.7 CALM 0 0 1008.8 - 0.0 - - - - - - -
24/06:00pm 30.8 N 4 6 1008.8 - 0.0 - - - - - - -
24/05:30pm 31.4 NNE 5 7 1008.8 - 0.0 - - - - - - -
24/05:00pm 31.6 NNE 6 8 1008.8 - 0.0 - - - - - - -
24/04:30pm 32.3 NNE 6 9 1009.0 - 0.0 - - - - - - -
24/04:00pm 32.2 NNE 7 9 1008.8 - 0.0 - - - - - - -
24/03:30pm 31.9 NE 6 9 1009.4 - 0.0 - - - - - - -
24/03:00pm 32.2 ENE 5 6 1010.0 - 0.0 - - - - - - -
24/02:30pm 31.7 ESE 4 5 1010.0 - 0.0 - - - - - - -
24/02:00pm 31.9 SE 5 7 1010.2 - 0.0 - - - - - - -
24/01:30pm 31.2 SE 7 8 1010.4 - 0.0 - - - - - - -
24/01:00pm 32.0 SE 8 9 1011.2 - 0.0 - - - - - - -
24/12:30pm 31.2 SE 9 10 1012.0 - 0.0 - - - - - - -
24/12:00pm 30.9 SE 10 12 1012.5 - 0.0 - - - - - - -
24/11:30am 30.6 SE 8 9 1013.1 - 0.0 - - - - - - -
24/11:00am 29.9 SSE 4 6 1013.4 - 0.0 - - - - - - -
24/10:30am 29.9 SE 6 7 1013.5 - 0.0 - - - - - - -
24/10:00am 29.2 ESE 6 7 1013.3 - 0.0 - - - - - - -
24/09:30am 28.9 ESE 5 6 1013.4 - 0.0 - - - - - - -
24/09:00am 28.6 ESE 7 8 1013.1 - 0.0 - - - - - - -
24/08:30am 27.6 ESE 10 12 1013.1 - 0.0 - - - - - - -
24/08:00am 27.0 SE 11 13 1012.9 - 0.0 - - - - - - -
24/07:30am 26.8 SE 12 13 1012.6 - 0.0 - - - - - - -
24/07:00am 26.9 ESE 12 13 1012.3 - 0.0 - - - - - - -
24/06:30am 26.8 ESE 11 13 1012.1 - 0.0 - - - - - - -
24/06:00am 26.9 ESE 12 13 1011.4 - 0.0 - - - - - - -
24/05:30am 26.9 ESE 10 13 1010.9 - 0.0 - - - - - - -
24/05:00am 26.9 E 10 13 1010.6 - 0.0 - - - - - - -
24/04:30am 27.0 E 11 13 1010.6 - 0.0 - - - - - - -
24/04:00am 27.0 E 10 12 1010.5 - 0.0 - - - - - - -
24/03:30am 27.1 E 10 12 1010.4 - 0.0 - - - - - - -
24/03:00am 27.1 E 10 12 1010.5 - 0.0 - - - - - - -
24/02:30am 27.2 E 11 13 1010.5 - 0.0 - - - - - - -
24/02:00am 27.2 E 10 11 1010.8 - 0.0 - - - - - - -
24/01:30am 27.3 E 9 10 1011.0 - 0.0 - - - - - - -
24/01:00am 27.4 E 9 11 1011.0 - 0.0 - - - - - - -
24/12:30am 27.5 E 9 10 1011.0 - 0.0 - - - - - - -
24/12:00am 27.6 E 9 10 1011.1 - 0.0 - - - - - - -
 
Date/Time
CST
Temp
°C
Wind Pressure Rain since
9am
mm
Weather Cloud Vis
km
Sea
Height
m
Swell
Dir  Spd
kts
Gust
kts
hPa Trend Height
m
Period
s
Dir
23/11:30pm 27.6 E 8 9 1011.3 - 0.0 - - - - - - -
23/11:00pm 27.6 E 10 11 1011.2 - 0.0 - - - - - - -
23/10:30pm 27.8 ESE 11 12 1011.2 - 0.0 - - - - - - -
23/10:00pm 27.8 ESE 10 12 1011.0 - 0.0 - - - - - - -
23/09:30pm 27.9 E 9 11 1010.5 - 0.0 - - - - - - -
23/09:00pm 28.0 E 8 9 1010.1 - 0.0 - - - - - - -
23/08:30pm 28.1 E 8 9 1009.5 - 0.0 - - - - - - -
23/08:00pm 28.2 ENE 9 11 1009.2 - 0.0 - - - - - - -
23/07:30pm 28.2 NE 10 13 1009.0 - 0.0 - - - - - - -
23/07:00pm 28.4 NE 8 10 1008.7 - 0.0 - - - - - - -
23/06:30pm 28.6 NE 9 11 1008.5 - 0.0 - - - - - - -
23/06:00pm 29.0 NE 8 10 1008.2 - 0.0 - - - - - - -
23/05:30pm 29.5 NE 7 9 1007.9 - 0.0 - - - - - - -
23/05:00pm 29.7 NE 7 8 1007.9 - 0.0 - - - - - - -
23/04:30pm 29.5 ESE 8 9 1007.8 - 0.0 - - - - - - -
23/04:00pm 29.6 ESE 9 11 1007.7 - 0.0 - - - - - - -
23/03:30pm 29.4 E 8 10 1007.8 - 0.0 - - - - - - -
23/03:00pm 29.6 ESE 11 13 1007.8 - 0.0 - - - - - - -
23/02:30pm 30.1 ESE 14 17 1007.8 - 0.0 - - - - - - -
23/02:00pm 30.1 ESE 14 17 1008.1 - 0.0 - - - - - - -
23/01:30pm 30.5 ESE 9 11 1008.4 - 0.0 - - - - - - -
23/01:00pm 30.0 ESE 11 13 1008.7 - 0.0 - - - - - - -
23/12:30pm 29.9 SE 9 10 1008.9 - 0.0 - - - - - - -
23/12:00pm 29.6 ESE 11 13 1009.5 - 0.0 - - - - - - -
23/11:30am 28.7 ESE 12 14 1009.6 - 0.0 - - - - - - -
23/11:00am 28.8 SE 11 13 1009.8 - 0.0 - - - - - - -
23/10:30am 28.2 ESE 10 11 1010.0 - 0.0 - - - - - - -
23/10:00am 28.1 ESE 9 10 1010.3 - 0.0 - - - - - - -
23/09:30am 27.9 SE 10 12 1010.5 - 0.0 - - - - - - -
23/09:00am 27.0 SE 9 11 1010.4 - 0.0 - - - - - - -
23/08:30am 26.6 SSE 9 10 1009.9 - 0.0 - - - - - - -
23/08:00am 26.3 S 7 9 1009.4 - 0.0 - - - - - - -
23/07:30am 26.3 SSE 11 11 1009.2 - 0.0 - - - - - - -
23/07:00am 26.3 SSE 11 12 1008.8 - 0.0 - - - - - - -
23/06:30am 26.3 SSE 10 11 1008.3 - 0.0 - - - - - - -
23/06:00am 26.5 S 6 7 1008.0 - 0.0 - - - - - - -
23/05:30am 26.5 S 4 5 1007.8 - 0.0 - - - - - - -
23/05:00am 26.7 CALM 0 0 1007.4 - 0.0 - - - - - - -
23/04:30am 26.4 CALM 0 0 1007.1 - 0.0 - - - - - - -
23/04:00am 26.5 CALM 0 2 1006.7 - 0.0 - - - - - - -
23/03:30am 26.7 NNE 4 5 1006.4 - 0.0 - - - - - - -
23/03:00am 26.6 NNE 2 4 1006.6 - 0.0 - - - - - - -
23/02:30am 26.7 CALM 0 0 1006.9 - 0.0 - - - - - - -
23/02:00am 26.8 CALM 0 2 1007.3 - 0.0 - - - - - - -
23/01:30am 26.8 E 2 5 1007.7 - 0.0 - - - - - - -
23/01:00am 26.7 NE 3 3 1007.9 - 0.0 - - - - - - -
23/12:30am 27.0 CALM 0 2 1008.4 - 0.0 - - - - - - -
23/12:00am 27.4 S 2 5 1008.9 - 0.0 - - - - - - -
 
Date/Time
CST
Temp
°C
Wind Pressure Rain since
9am
mm
Weather Cloud Vis
km
Sea
Height
m
Swell
Dir  Spd
kts
Gust
kts
hPa Trend Height
m
Period
s
Dir
22/11:30pm 27.8 W 4 5 1008.9 - 0.0 - - - - - - -
22/11:00pm 27.8 SSW 11 15 1009.4 - 0.0 - - - - - - -
22/10:30pm 27.7 NW 5 7 1008.8 - 0.0 - - - - - - -
22/10:00pm 27.6 NNW 7 9 1008.7 - 0.0 - - - - - - -
22/09:30pm 27.6 NNW 8 10 1008.3 - 0.0 - - - - - - -
22/09:00pm 27.8 NNW 9 12 1008.2 - 0.0 - - - - - - -
22/08:30pm 27.8 NW 9 12 1007.9 - 0.0 - - - - - - -
22/08:00pm 27.9 NNW 10 14 1007.5 - 0.0 - - - - - - -
22/07:30pm 28.0 NNW 10 14 1007.2 - 0.0 - - - - - - -
22/07:00pm 28.3 NNW 10 14 1006.8 - 0.0 - - - - - - -
22/06:30pm 29.5 NNW 9 12 1006.5 - 0.0 - - - - - - -
22/06:00pm 31.8 W 8 11 1006.1 - 0.0 - - - - - - -
22/05:30pm 32.2 W 9 11 1005.7 - 0.0 - - - - - - -
22/05:00pm 32.3 W 8 10 1005.6 - 0.0 - - - - - - -
22/04:30pm 31.6 W 8 9 1005.7 - 0.0 - - - - - - -

Other Formats:

Comma delimited format used in spreadsheet applications
http://www.bom.gov.au/fwo/IDD60701/IDD60701.94248.axf

JavaScript Object Notation format (JSON) in row-major order
http://www.bom.gov.au/fwo/IDD60701/IDD60701.94248.json